This is the latest recevied weather packets stored in our database for station/object KE5KUL-13. If no packets are shown the sender has not sent any weather packets the latest 10 day(s).
| Time | Temp. | Humidity | Pressure | Rain* | Wind** | Luminosity | Snow |
|---|---|---|---|---|---|---|---|
| 1777393518 | 23.33° C | 43% | 1017.6 hPa | 0 mm | - | - | - |
| 1777392919 | 23.33° C | 43% | 1017.5 hPa | 0 mm | - | - | - |
| 1777391118 | 22.22° C | 47% | 1017.3 hPa | 0 mm | - | - | - |
| 1777390518 | 21.67° C | 50% | 1016.8 hPa | 0 mm | - | - | - |
| 1777389918 | 21.11° C | 52% | 1016.8 hPa | 0 mm | - | - | - |
| 1777389318 | 20° C | 54% | 1016.7 hPa | 0 mm | - | - | - |
| 1777387518 | 17.78° C | 60% | 1016.6 hPa | 0 mm | - | - | - |
| 1777386918 | 17.78° C | 60% | 1016.7 hPa | 0 mm | - | - | - |
| 1777386318 | 18.33° C | 60% | 1016.9 hPa | 0 mm | - | - | - |
| 1777385718 | 17.22° C | 59% | 1016.5 hPa | 0 mm | - | - | - |
| 1777383918 | 14.44° C | 70% | 1015.8 hPa | 0 mm | - | - | - |
| 1777382718 | 12.22° C | 76% | 1014.9 hPa | 0 mm | - | - | - |
| 1777382118 | 11.11° C | 78% | 1014.9 hPa | 0 mm | - | - | - |
| 1777381518 | 11.11° C | 77% | 1014.7 hPa | 0 mm | - | - | - |
| 1777380918 | 10.56° C | 77% | 1014.4 hPa | 0 mm | - | - | - |
| 1777379718 | 10.56° C | 76% | 1014.3 hPa | 0 mm | - | - | - |
| 1777378808 | 10.56° C | 75% | 1013.9 hPa | 0 mm | - | - | - |
| 1777377918 | 11.11° C | 75% | 1013.7 hPa | 0 mm | - | - | - |
| 1777377318 | 11.11° C | 74% | 1013.9 hPa | 0 mm | - | - | - |
| 1777376718 | 11.11° C | 73% | 1013.9 hPa | 0 mm | - | - | - |
| 1777376117 | 11.67° C | 73% | 1014 hPa | 0 mm | - | - | - |
| 1777375518 | 11.67° C | 73% | 1014.1 hPa | 0 mm | - | - | - |
| 1777374918 | 11.67° C | 71% | 1014.2 hPa | 0 mm | - | - | - |
| 1777374318 | 11.67° C | 71% | 1013.9 hPa | 0 mm | - | - | - |
| 1777373718 | 12.22° C | 70% | 1014 hPa | 0 mm | - | - | - |
* Rain latest hour (hover to see other rain measurements)
** Current wind speed in m/s (hover to see current wind gust speed)